sensor_id;sensor_type;location;lat;lon;timestamp;pressure;altitude;pressure_sealevel;temperature;humidity
73974;BME280;62336;-26.094;27.994;2023-04-03T00:00:15;84913.26;;;30.91;23.04
73974;BME280;62336;-26.094;27.994;2023-04-03T00:02:40;84912.89;;;31.20;22.58
73974;BME280;62336;-26.094;27.994;2023-04-03T00:05:06;84913.38;;;31.20;22.50
73974;BME280;62336;-26.094;27.994;2023-04-03T00:07:31;84912.83;;;30.53;22.78
73974;BME280;62336;-26.094;27.994;2023-04-03T00:09:57;84912.27;;;30.88;23.07
73974;BME280;62336;-26.094;27.994;2023-04-03T00:12:22;84914.24;;;30.71;23.00
73974;BME280;62336;-26.094;27.994;2023-04-03T00:14:47;84911.58;;;31.09;22.47
73974;BME280;62336;-26.094;27.994;2023-04-03T00:17:12;84911.46;;;30.98;23.04
73974;BME280;62336;-26.094;27.994;2023-04-03T00:19:38;84910.51;;;30.88;22.96
73974;BME280;62336;-26.094;27.994;2023-04-03T00:22:03;84908.85;;;31.40;22.57
73974;BME280;62336;-26.094;27.994;2023-04-03T00:24:28;84913.13;;;30.48;23.05
73974;BME280;62336;-26.094;27.994;2023-04-03T00:26:53;84917.80;;;31.19;22.73
73974;BME280;62336;-26.094;27.994;2023-04-03T00:29:19;84921.89;;;30.87;22.98
73974;BME280;62336;-26.094;27.994;2023-04-03T00:31:44;84916.60;;;31.13;22.58
73974;BME280;62336;-26.094;27.994;2023-04-03T00:34:09;84928.47;;;30.86;23.14
73974;BME280;62336;-26.094;27.994;2023-04-03T00:36:36;84943.59;;;30.54;23.12
73974;BME280;62336;-26.094;27.994;2023-04-03T00:39:01;84949.23;;;30.72;23.02
73974;BME280;62336;-26.094;27.994;2023-04-03T00:41:25;84954.21;;;31.11;22.71
73974;BME280;62336;-26.094;27.994;2023-04-03T00:43:51;84962.29;;;31.54;22.43
73974;BME280;62336;-26.094;27.994;2023-04-03T00:46:16;84962.82;;;31.41;22.06
73974;BME280;62336;-26.094;27.994;2023-04-03T00:48:43;84958.89;;;31.01;21.82
73974;BME280;62336;-26.094;27.994;2023-04-03T00:51:08;84954.47;;;31.78;21.24
73974;BME280;62336;-26.094;27.994;2023-04-03T00:53:35;84953.41;;;31.16;21.32
73974;BME280;62336;-26.094;27.994;2023-04-03T00:55:57;84945.00;;;31.70;21.03
73974;BME280;62336;-26.094;27.994;2023-04-03T00:58:26;84944.73;;;31.25;21.15
73974;BME280;62336;-26.094;27.994;2023-04-03T01:00:54;84943.78;;;31.72;20.74
73974;BME280;62336;-26.094;27.994;2023-04-03T01:03:14;84942.59;;;31.35;20.89
73974;BME280;62336;-26.094;27.994;2023-04-03T01:05:40;84941.61;;;31.22;20.88
73974;BME280;62336;-26.094;27.994;2023-04-03T01:08:04;84939.86;;;30.94;20.90
73974;BME280;62336;-26.094;27.994;2023-04-03T01:10:29;84940.70;;;31.13;20.70
73974;BME280;62336;-26.094;27.994;2023-04-03T01:12:55;84941.03;;;31.01;20.40
73974;BME280;62336;-26.094;27.994;2023-04-03T01:15:23;84940.19;;;31.14;20.47
73974;BME280;62336;-26.094;27.994;2023-04-03T01:17:48;84941.39;;;31.57;20.53
73974;BME280;62336;-26.094;27.994;2023-04-03T01:22:41;84947.42;;;31.15;20.25
73974;BME280;62336;-26.094;27.994;2023-04-03T01:25:05;84946.54;;;31.51;20.41
73974;BME280;62336;-26.094;27.994;2023-04-03T01:27:30;84949.63;;;30.86;20.11
73974;BME280;62336;-26.094;27.994;2023-04-03T01:29:55;84941.49;;;31.39;19.87
73974;BME280;62336;-26.094;27.994;2023-04-03T01:32:20;84945.67;;;30.86;20.10
73974;BME280;62336;-26.094;27.994;2023-04-03T01:34:46;84942.81;;;31.37;19.78
73974;BME280;62336;-26.094;27.994;2023-04-03T01:37:11;84936.18;;;30.94;20.26
73974;BME280;62336;-26.094;27.994;2023-04-03T01:39:37;84931.09;;;30.86;20.32
73974;BME280;62336;-26.094;27.994;2023-04-03T01:42:03;84926.30;;;31.03;20.61
73974;BME280;62336;-26.094;27.994;2023-04-03T01:44:27;84918.84;;;30.55;20.63
73974;BME280;62336;-26.094;27.994;2023-04-03T01:46:53;84921.40;;;31.04;20.58
73974;BME280;62336;-26.094;27.994;2023-04-03T01:49:18;84915.25;;;32.00;19.67
73974;BME280;62336;-26.094;27.994;2023-04-03T01:51:44;84913.28;;;31.19;20.16
73974;BME280;62336;-26.094;27.994;2023-04-03T01:54:10;84910.96;;;30.85;20.47
73974;BME280;62336;-26.094;27.994;2023-04-03T01:56:35;84900.30;;;31.08;20.43
73974;BME280;62336;-26.094;27.994;2023-04-03T01:59:01;84895.95;;;31.11;20.44
73974;BME280;62336;-26.094;27.994;2023-04-03T02:01:26;84898.78;;;31.27;20.42
73974;BME280;62336;-26.094;27.994;2023-04-03T02:03:52;84905.23;;;30.31;20.47
73974;BME280;62336;-26.094;27.994;2023-04-03T02:06:18;84907.09;;;30.99;20.85
73974;BME280;62336;-26.094;27.994;2023-04-03T02:08:43;84909.32;;;31.45;20.50
73974;BME280;62336;-26.094;27.994;2023-04-03T02:11:09;84917.44;;;30.74;20.44
73974;BME280;62336;-26.094;27.994;2023-04-03T02:13:35;84918.38;;;30.73;20.40
73974;BME280;62336;-26.094;27.994;2023-04-03T02:16:06;84915.55;;;30.99;20.67
73974;BME280;62336;-26.094;27.994;2023-04-03T02:18:26;84906.06;;;30.93;20.50
73974;BME280;62336;-26.094;27.994;2023-04-03T02:20:52;84900.16;;;31.24;20.44
73974;BME280;62336;-26.094;27.994;2023-04-03T02:23:17;84900.03;;;30.92;20.37
73974;BME280;62336;-26.094;27.994;2023-04-03T02:25:42;84904.07;;;31.16;20.52
73974;BME280;62336;-26.094;27.994;2023-04-03T02:28:08;84907.07;;;31.07;20.59
73974;BME280;62336;-26.094;27.994;2023-04-03T02:30:34;84902.78;;;31.03;20.56
73974;BME280;62336;-26.094;27.994;2023-04-03T02:33:00;84902.44;;;31.44;20.29
73974;BME280;62336;-26.094;27.994;2023-04-03T02:35:26;84901.82;;;31.16;20.65
73974;BME280;62336;-26.094;27.994;2023-04-03T02:37:51;84899.99;;;31.30;20.65
73974;BME280;62336;-26.094;27.994;2023-04-03T02:40:17;84896.88;;;30.97;20.57
73974;BME280;62336;-26.094;27.994;2023-04-03T02:42:42;84889.81;;;31.45;20.57
73974;BME280;62336;-26.094;27.994;2023-04-03T02:45:08;84879.51;;;31.32;20.45
73974;BME280;62336;-26.094;27.994;2023-04-03T02:47:33;84871.46;;;31.26;20.76
73974;BME280;62336;-26.094;27.994;2023-04-03T02:49:59;84876.69;;;30.98;20.75
73974;BME280;62336;-26.094;27.994;2023-04-03T02:52:25;84874.24;;;31.39;20.53
73974;BME280;62336;-26.094;27.994;2023-04-03T02:54:50;84875.19;;;31.94;20.21
73974;BME280;62336;-26.094;27.994;2023-04-03T02:57:16;84882.13;;;32.31;19.89
73974;BME280;62336;-26.094;27.994;2023-04-03T02:59:41;84896.09;;;31.10;21.00
73974;BME280;62336;-26.094;27.994;2023-04-03T03:02:07;84915.38;;;31.34;21.08
73974;BME280;62336;-26.094;27.994;2023-04-03T03:04:32;84927.71;;;31.01;21.32
73974;BME280;62336;-26.094;27.994;2023-04-03T03:06:58;84925.76;;;29.87;22.29
73974;BME280;62336;-26.094;27.994;2023-04-03T03:09:25;84924.71;;;29.81;22.41
73974;BME280;62336;-26.094;27.994;2023-04-03T03:11:49;84922.11;;;30.52;22.03
73974;BME280;62336;-26.094;27.994;2023-04-03T03:14:14;84918.90;;;30.36;22.12
73974;BME280;62336;-26.094;27.994;2023-04-03T03:16:40;84925.51;;;30.94;21.98
73974;BME280;62336;-26.094;27.994;2023-04-03T03:19:06;84930.41;;;30.25;22.29
73974;BME280;62336;-26.094;27.994;2023-04-03T03:21:31;84928.82;;;30.52;22.11
73974;BME280;62336;-26.094;27.994;2023-04-03T03:23:56;84933.26;;;30.86;21.77
73974;BME280;62336;-26.094;27.994;2023-04-03T03:26:22;84925.87;;;30.09;22.36
73974;BME280;62336;-26.094;27.994;2023-04-03T03:28:47;84927.48;;;30.19;22.31
73974;BME280;62336;-26.094;27.994;2023-04-03T03:31:12;84927.95;;;30.08;22.36
73974;BME280;62336;-26.094;27.994;2023-04-03T03:33:38;84932.69;;;30.34;22.58
73974;BME280;62336;-26.094;27.994;2023-04-03T03:36:04;84940.26;;;30.76;22.12
73974;BME280;62336;-26.094;27.994;2023-04-03T03:38:29;84942.32;;;30.41;22.14
73974;BME280;62336;-26.094;27.994;2023-04-03T03:40:55;84945.72;;;30.13;22.36
73974;BME280;62336;-26.094;27.994;2023-04-03T03:43:20;84940.65;;;30.34;22.34
73974;BME280;62336;-26.094;27.994;2023-04-03T03:45:46;84939.78;;;30.92;22.20
73974;BME280;62336;-26.094;27.994;2023-04-03T03:48:10;84939.42;;;30.78;22.14
73974;BME280;62336;-26.094;27.994;2023-04-03T03:50:35;84943.04;;;30.89;22.11
73974;BME280;62336;-26.094;27.994;2023-04-03T03:53:01;84944.98;;;30.30;22.45
73974;BME280;62336;-26.094;27.994;2023-04-03T03:55:28;84955.86;;;29.81;22.78
73974;BME280;62336;-26.094;27.994;2023-04-03T03:57:52;84955.94;;;29.72;22.92
73974;BME280;62336;-26.094;27.994;2023-04-03T04:00:18;84953.81;;;29.80;22.84
73974;BME280;62336;-26.094;27.994;2023-04-03T04:02:43;84960.62;;;30.72;22.54
73974;BME280;62336;-26.094;27.994;2023-04-03T04:05:10;84965.87;;;29.97;22.90
73974;BME280;62336;-26.094;27.994;2023-04-03T04:07:34;84966.09;;;29.76;22.91
73974;BME280;62336;-26.094;27.994;2023-04-03T04:10:00;84968.69;;;29.89;23.10
73974;BME280;62336;-26.094;27.994;2023-04-03T04:12:26;84966.99;;;29.99;22.93
73974;BME280;62336;-26.094;27.994;2023-04-03T04:14:51;84967.96;;;30.11;22.99
73974;BME280;62336;-26.094;27.994;2023-04-03T04:17:17;84968.11;;;30.23;23.00
73974;BME280;62336;-26.094;27.994;2023-04-03T04:19:42;84963.74;;;30.11;23.09
73974;BME280;62336;-26.094;27.994;2023-04-03T04:22:07;84960.02;;;30.31;22.80
73974;BME280;62336;-26.094;27.994;2023-04-03T04:24:33;84954.20;;;30.23;23.16
73974;BME280;62336;-26.094;27.994;2023-04-03T04:26:58;84956.35;;;30.15;23.06
73974;BME280;62336;-26.094;27.994;2023-04-03T04:29:23;84954.37;;;29.92;23.16
73974;BME280;62336;-26.094;27.994;2023-04-03T04:31:48;84953.16;;;29.80;23.18
73974;BME280;62336;-26.094;27.994;2023-04-03T04:34:14;84949.81;;;29.94;23.05
73974;BME280;62336;-26.094;27.994;2023-04-03T04:36:40;84948.71;;;30.60;23.20
73974;BME280;62336;-26.094;27.994;2023-04-03T04:39:06;84946.39;;;30.35;23.01
73974;BME280;62336;-26.094;27.994;2023-04-03T04:41:32;84950.26;;;30.50;22.64
73974;BME280;62336;-26.094;27.994;2023-04-03T04:43:56;84954.44;;;29.85;23.15
73974;BME280;62336;-26.094;27.994;2023-04-03T04:46:22;84955.91;;;30.48;22.89
73974;BME280;62336;-26.094;27.994;2023-04-03T04:48:48;84956.92;;;29.68;23.34
73974;BME280;62336;-26.094;27.994;2023-04-03T04:51:13;84948.57;;;29.55;23.34
73974;BME280;62336;-26.094;27.994;2023-04-03T04:53:38;84948.23;;;29.87;23.24
73974;BME280;62336;-26.094;27.994;2023-04-03T04:56:05;84948.58;;;30.50;22.84
73974;BME280;62336;-26.094;27.994;2023-04-03T04:58:30;84953.46;;;29.94;23.31
73974;BME280;62336;-26.094;27.994;2023-04-03T05:00:59;84950.97;;;29.51;23.63
73974;BME280;62336;-26.094;27.994;2023-04-03T05:03:21;84946.81;;;29.69;23.40
73974;BME280;62336;-26.094;27.994;2023-04-03T05:05:46;84945.35;;;29.64;23.45
73974;BME280;62336;-26.094;27.994;2023-04-03T05:08:12;84941.46;;;29.98;23.62
73974;BME280;62336;-26.094;27.994;2023-04-03T05:10:37;84942.82;;;30.65;23.16
73974;BME280;62336;-26.094;27.994;2023-04-03T05:13:03;84952.90;;;30.64;22.99
73974;BME280;62336;-26.094;27.994;2023-04-03T05:15:28;84957.88;;;30.58;23.03
73974;BME280;62336;-26.094;27.994;2023-04-03T05:17:54;84959.73;;;30.40;23.28
73974;BME280;62336;-26.094;27.994;2023-04-03T05:20:20;84958.14;;;29.99;23.38
73974;BME280;62336;-26.094;27.994;2023-04-03T05:22:45;84959.78;;;29.86;23.72
73974;BME280;62336;-26.094;27.994;2023-04-03T05:25:11;84959.38;;;29.65;23.80
73974;BME280;62336;-26.094;27.994;2023-04-03T05:27:36;84960.37;;;31.00;23.02
73974;BME280;62336;-26.094;27.994;2023-04-03T05:30:02;84964.96;;;30.67;23.03
73974;BME280;62336;-26.094;27.994;2023-04-03T05:32:27;84970.00;;;30.78;23.01
73974;BME280;62336;-26.094;27.994;2023-04-03T05:34:52;84981.23;;;30.27;23.15
73974;BME280;62336;-26.094;27.994;2023-04-03T05:37:17;84981.20;;;30.09;23.36
73974;BME280;62336;-26.094;27.994;2023-04-03T05:39:42;84976.56;;;30.40;23.39
73974;BME280;62336;-26.094;27.994;2023-04-03T05:42:08;84980.33;;;30.19;23.22
73974;BME280;62336;-26.094;27.994;2023-04-03T05:44:33;84981.89;;;30.22;23.34
73974;BME280;62336;-26.094;27.994;2023-04-03T05:46:59;84981.66;;;30.94;22.95
73974;BME280;62336;-26.094;27.994;2023-04-03T05:49:24;84981.57;;;30.79;22.88
73974;BME280;62336;-26.094;27.994;2023-04-03T05:51:49;84982.48;;;30.54;23.16
73974;BME280;62336;-26.094;27.994;2023-04-03T05:54:19;84986.85;;;30.69;23.03
73974;BME280;62336;-26.094;27.994;2023-04-03T05:56:40;84989.47;;;30.63;23.01
73974;BME280;62336;-26.094;27.994;2023-04-03T05:59:06;84994.74;;;30.92;22.92
73974;BME280;62336;-26.094;27.994;2023-04-03T06:01:31;84994.83;;;30.89;22.81
73974;BME280;62336;-26.094;27.994;2023-04-03T06:03:57;85000.19;;;31.38;21.99
73974;BME280;62336;-26.094;27.994;2023-04-03T06:06:22;84992.52;;;31.19;22.27
73974;BME280;62336;-26.094;27.994;2023-04-03T06:08:47;84992.41;;;31.06;22.30
73974;BME280;62336;-26.094;27.994;2023-04-03T06:11:13;84997.40;;;31.04;22.03
73974;BME280;62336;-26.094;27.994;2023-04-03T06:13:39;85005.69;;;31.01;22.33
73974;BME280;62336;-26.094;27.994;2023-04-03T06:16:05;85004.08;;;30.97;22.34
73974;BME280;62336;-26.094;27.994;2023-04-03T06:18:30;85004.67;;;31.08;22.38
73974;BME280;62336;-26.094;27.994;2023-04-03T06:20:56;85005.66;;;31.48;22.07
73974;BME280;62336;-26.094;27.994;2023-04-03T06:23:21;85001.32;;;32.11;21.44
73974;BME280;62336;-26.094;27.994;2023-04-03T06:25:47;85004.18;;;32.14;21.39
73974;BME280;62336;-26.094;27.994;2023-04-03T06:28:13;85002.63;;;32.48;20.59
73974;BME280;62336;-26.094;27.994;2023-04-03T06:30:38;84997.85;;;32.06;20.99
73974;BME280;62336;-26.094;27.994;2023-04-03T06:33:04;84998.13;;;31.86;20.83
73974;BME280;62336;-26.094;27.994;2023-04-03T06:35:29;85000.80;;;31.51;21.28
73974;BME280;62336;-26.094;27.994;2023-04-03T06:37:54;84989.71;;;31.80;21.04
73974;BME280;62336;-26.094;27.994;2023-04-03T06:40:22;84988.15;;;31.70;21.09
73974;BME280;62336;-26.094;27.994;2023-04-03T06:42:44;84989.52;;;31.85;21.19
73974;BME280;62336;-26.094;27.994;2023-04-03T06:45:11;84979.38;;;31.69;21.31
73974;BME280;62336;-26.094;27.994;2023-04-03T06:47:35;84977.57;;;31.41;21.32
73974;BME280;62336;-26.094;27.994;2023-04-03T06:50:01;84966.77;;;32.10;20.85
73974;BME280;62336;-26.094;27.994;2023-04-03T06:52:26;84965.72;;;31.91;21.35
73974;BME280;62336;-26.094;27.994;2023-04-03T06:54:52;84966.33;;;32.02;21.21
73974;BME280;62336;-26.094;27.994;2023-04-03T06:57:17;84968.43;;;31.58;21.25
73974;BME280;62336;-26.094;27.994;2023-04-03T06:59:42;84968.78;;;31.90;21.13
73974;BME280;62336;-26.094;27.994;2023-04-03T07:02:10;84963.82;;;31.98;21.23
73974;BME280;62336;-26.094;27.994;2023-04-03T07:04:33;84965.23;;;32.20;21.23
73974;BME280;62336;-26.094;27.994;2023-04-03T07:06:59;84965.31;;;32.29;21.07
73974;BME280;62336;-26.094;27.994;2023-04-03T07:09:24;84978.50;;;32.44;20.79
73974;BME280;62336;-26.094;27.994;2023-04-03T07:11:49;84985.87;;;31.93;21.16
73974;BME280;62336;-26.094;27.994;2023-04-03T07:14:15;84991.12;;;31.52;21.49
73974;BME280;62336;-26.094;27.994;2023-04-03T07:16:41;84995.56;;;31.81;21.22
73974;BME280;62336;-26.094;27.994;2023-04-03T07:19:06;84997.18;;;32.41;21.14
73974;BME280;62336;-26.094;27.994;2023-04-03T07:21:32;84995.61;;;31.92;21.54
73974;BME280;62336;-26.094;27.994;2023-04-03T07:23:57;84999.18;;;32.59;21.14
73974;BME280;62336;-26.094;27.994;2023-04-03T07:26:23;84996.74;;;32.51;21.15
73974;BME280;62336;-26.094;27.994;2023-04-03T07:28:47;84998.35;;;32.15;21.12
73974;BME280;62336;-26.094;27.994;2023-04-03T07:31:12;85004.20;;;32.35;21.02
73974;BME280;62336;-26.094;27.994;2023-04-03T07:33:38;85000.70;;;32.23;21.50
73974;BME280;62336;-26.094;27.994;2023-04-03T07:36:05;84996.57;;;32.75;21.17
73974;BME280;62336;-26.094;27.994;2023-04-03T07:38:28;84989.79;;;33.20;20.43
73974;BME280;62336;-26.094;27.994;2023-04-03T07:40:54;84988.95;;;32.86;20.60
73974;BME280;62336;-26.094;27.994;2023-04-03T07:43:21;84987.66;;;32.31;21.04
73974;BME280;62336;-26.094;27.994;2023-04-03T07:45:45;84984.83;;;32.65;20.74
73974;BME280;62336;-26.094;27.994;2023-04-03T07:48:11;84981.37;;;33.68;20.52
73974;BME280;62336;-26.094;27.994;2023-04-03T07:50:35;84978.13;;;33.28;20.86
73974;BME280;62336;-26.094;27.994;2023-04-03T07:53:00;84976.06;;;32.86;20.78
73974;BME280;62336;-26.094;27.994;2023-04-03T07:55:26;84985.19;;;32.45;20.98
73974;BME280;62336;-26.094;27.994;2023-04-03T07:57:50;84980.18;;;32.52;21.10
73974;BME280;62336;-26.094;27.994;2023-04-03T08:00:16;84979.80;;;32.28;21.25
73974;BME280;62336;-26.094;27.994;2023-04-03T08:02:41;84979.08;;;32.42;21.48
73974;BME280;62336;-26.094;27.994;2023-04-03T08:05:07;84978.35;;;32.09;21.53
73974;BME280;62336;-26.094;27.994;2023-04-03T08:07:31;84981.94;;;33.13;21.25
73974;BME280;62336;-26.094;27.994;2023-04-03T08:09:57;84979.30;;;33.04;20.71
73974;BME280;62336;-26.094;27.994;2023-04-03T08:12:22;84977.81;;;33.22;20.52
73974;BME280;62336;-26.094;27.994;2023-04-03T08:14:48;84979.01;;;32.84;20.82
73974;BME280;62336;-26.094;27.994;2023-04-03T08:17:13;84980.06;;;32.22;21.46
73974;BME280;62336;-26.094;27.994;2023-04-03T08:19:39;84979.84;;;32.77;21.32
73974;BME280;62336;-26.094;27.994;2023-04-03T08:22:05;84982.45;;;32.70;21.03
73974;BME280;62336;-26.094;27.994;2023-04-03T08:24:30;84979.61;;;32.67;21.07
73974;BME280;62336;-26.094;27.994;2023-04-03T08:26:55;84973.57;;;33.00;20.78
73974;BME280;62336;-26.094;27.994;2023-04-03T08:29:21;84979.29;;;33.37;20.40
73974;BME280;62336;-26.094;27.994;2023-04-03T08:31:46;84979.91;;;33.36;20.55
73974;BME280;62336;-26.094;27.994;2023-04-03T08:34:12;84977.29;;;33.64;20.17
73974;BME280;62336;-26.094;27.994;2023-04-03T08:36:37;84982.24;;;33.47;20.17
73974;BME280;62336;-26.094;27.994;2023-04-03T08:39:04;84981.75;;;33.34;20.55
73974;BME280;62336;-26.094;27.994;2023-04-03T08:41:31;84977.05;;;33.32;20.57
73974;BME280;62336;-26.094;27.994;2023-04-03T08:43:59;84983.59;;;33.49;20.75
73974;BME280;62336;-26.094;27.994;2023-04-03T08:46:19;84979.30;;;33.61;20.14
73974;BME280;62336;-26.094;27.994;2023-04-03T08:48:44;84979.42;;;33.76;20.31
73974;BME280;62336;-26.094;27.994;2023-04-03T08:51:14;84981.94;;;33.37;20.47
73974;BME280;62336;-26.094;27.994;2023-04-03T08:53:39;84978.96;;;33.33;20.79
73974;BME280;62336;-26.094;27.994;2023-04-03T08:56:02;84969.41;;;33.84;20.44
73974;BME280;62336;-26.094;27.994;2023-04-03T08:58:27;84964.90;;;33.72;20.23
73974;BME280;62336;-26.094;27.994;2023-04-03T09:00:53;84955.54;;;33.69;20.45
73974;BME280;62336;-26.094;27.994;2023-04-03T09:03:19;84950.00;;;33.52;21.05
73974;BME280;62336;-26.094;27.994;2023-04-03T09:05:45;84949.57;;;34.29;20.01
73974;BME280;62336;-26.094;27.994;2023-04-03T09:08:16;84949.99;;;33.48;20.23
73974;BME280;62336;-26.094;27.994;2023-04-03T09:10:34;84948.97;;;34.14;20.02
73974;BME280;62336;-26.094;27.994;2023-04-03T09:13:01;84957.80;;;33.78;20.42
73974;BME280;62336;-26.094;27.994;2023-04-03T09:15:24;84949.94;;;33.75;20.50
73974;BME280;62336;-26.094;27.994;2023-04-03T09:17:59;84949.89;;;34.95;19.51
73974;BME280;62336;-26.094;27.994;2023-04-03T09:20:22;84951.64;;;34.29;19.98
73974;BME280;62336;-26.094;27.994;2023-04-03T09:22:42;84950.63;;;34.87;19.24
73974;BME280;62336;-26.094;27.994;2023-04-03T09:25:10;84951.66;;;34.15;19.97
73974;BME280;62336;-26.094;27.994;2023-04-03T09:27:30;84945.71;;;34.60;19.86
73974;BME280;62336;-26.094;27.994;2023-04-03T09:29:57;84943.28;;;34.11;20.04
73974;BME280;62336;-26.094;27.994;2023-04-03T09:32:27;84939.25;;;34.01;20.45
73974;BME280;62336;-26.094;27.994;2023-04-03T09:34:48;84940.65;;;34.79;19.51
73974;BME280;62336;-26.094;27.994;2023-04-03T09:42:06;84922.96;;;35.35;18.90
73974;BME280;62336;-26.094;27.994;2023-04-03T09:44:31;84918.55;;;34.53;19.61
73974;BME280;62336;-26.094;27.994;2023-04-03T09:46:54;84915.10;;;35.29;19.13
73974;BME280;62336;-26.094;27.994;2023-04-03T09:49:20;84909.12;;;34.67;19.53
73974;BME280;62336;-26.094;27.994;2023-04-03T09:51:47;84906.24;;;34.88;19.47
73974;BME280;62336;-26.094;27.994;2023-04-03T09:56:37;84901.00;;;35.35;18.82
73974;BME280;62336;-26.094;27.994;2023-04-03T09:59:13;84895.32;;;35.85;18.59
73974;BME280;62336;-26.094;27.994;2023-04-03T10:01:30;84889.94;;;35.23;19.09
73974;BME280;62336;-26.094;27.994;2023-04-03T10:04:06;84881.09;;;35.05;19.08
73974;BME280;62336;-26.094;27.994;2023-04-03T10:06:23;84882.23;;;34.81;19.20
73974;BME280;62336;-26.094;27.994;2023-04-03T10:11:13;84873.88;;;35.38;19.12
73974;BME280;62336;-26.094;27.994;2023-04-03T10:13:36;84865.94;;;35.88;18.39
73974;BME280;62336;-26.094;27.994;2023-04-03T10:16:06;84862.14;;;35.47;18.69
73974;BME280;62336;-26.094;27.994;2023-04-03T10:18:32;84865.57;;;35.62;18.41
73974;BME280;62336;-26.094;27.994;2023-04-03T10:20:55;84863.27;;;35.35;18.71
73974;BME280;62336;-26.094;27.994;2023-04-03T10:23:22;84854.94;;;35.57;18.76
73974;BME280;62336;-26.094;27.994;2023-04-03T10:25:51;84861.09;;;35.17;19.33
73974;BME280;62336;-26.094;27.994;2023-04-03T10:28:12;84853.90;;;35.78;18.42
73974;BME280;62336;-26.094;27.994;2023-04-03T10:30:42;84848.41;;;35.47;18.87
73974;BME280;62336;-26.094;27.994;2023-04-03T10:33:11;84845.39;;;36.09;18.03
73974;BME280;62336;-26.094;27.994;2023-04-03T10:35:36;84844.21;;;35.99;18.33
73974;BME280;62336;-26.094;27.994;2023-04-03T10:38:01;84843.60;;;36.25;18.07
73974;BME280;62336;-26.094;27.994;2023-04-03T10:40:24;84838.54;;;35.95;18.27
73974;BME280;62336;-26.094;27.994;2023-04-03T10:42:45;84833.98;;;36.29;17.89
73974;BME280;62336;-26.094;27.994;2023-04-03T10:45:18;84827.87;;;35.89;18.41
73974;BME280;62336;-26.094;27.994;2023-04-03T10:47:39;84826.76;;;36.43;17.81
73974;BME280;62336;-26.094;27.994;2023-04-03T10:50:05;84816.78;;;35.82;17.52
73974;BME280;62336;-26.094;27.994;2023-04-03T10:52:29;84809.30;;;36.15;17.89
73974;BME280;62336;-26.094;27.994;2023-04-03T10:54:58;84804.57;;;35.99;18.11
73974;BME280;62336;-26.094;27.994;2023-04-03T10:57:15;84800.93;;;36.46;17.87
73974;BME280;62336;-26.094;27.994;2023-04-03T10:59:45;84797.66;;;36.24;18.16
73974;BME280;62336;-26.094;27.994;2023-04-03T11:02:11;84795.71;;;36.72;18.09
73974;BME280;62336;-26.094;27.994;2023-04-03T11:04:35;84790.70;;;36.98;17.75
73974;BME280;62336;-26.094;27.994;2023-04-03T11:07:02;84786.46;;;36.83;17.43
73974;BME280;62336;-26.094;27.994;2023-04-03T11:09:26;84789.57;;;36.57;17.89
73974;BME280;62336;-26.094;27.994;2023-04-03T11:11:49;84784.02;;;36.55;17.65
73974;BME280;62336;-26.094;27.994;2023-04-03T11:14:21;84781.83;;;36.23;17.83
73974;BME280;62336;-26.094;27.994;2023-04-03T11:16:42;84780.01;;;36.81;17.51
73974;BME280;62336;-26.094;27.994;2023-04-03T11:19:11;84779.34;;;36.77;17.48
73974;BME280;62336;-26.094;27.994;2023-04-03T11:21:37;84775.35;;;36.64;17.38
73974;BME280;62336;-26.094;27.994;2023-04-03T11:23:58;84767.52;;;36.89;17.71
73974;BME280;62336;-26.094;27.994;2023-04-03T11:26:24;84766.33;;;36.34;17.51
73974;BME280;62336;-26.094;27.994;2023-04-03T11:28:53;84764.10;;;36.53;17.37
73974;BME280;62336;-26.094;27.994;2023-04-03T11:31:28;84761.80;;;36.80;17.50
73974;BME280;62336;-26.094;27.994;2023-04-03T11:33:44;84756.06;;;37.41;16.88
73974;BME280;62336;-26.094;27.994;2023-04-03T11:36:08;84757.51;;;37.02;17.07
73974;BME280;62336;-26.094;27.994;2023-04-03T11:38:33;84751.41;;;37.00;16.94
73974;BME280;62336;-26.094;27.994;2023-04-03T11:40:56;84746.13;;;37.22;16.92
73974;BME280;62336;-26.094;27.994;2023-04-03T11:43:24;84743.29;;;37.26;16.81
73974;BME280;62336;-26.094;27.994;2023-04-03T11:45:54;84738.96;;;37.85;16.13
73974;BME280;62336;-26.094;27.994;2023-04-03T11:50:43;84734.35;;;37.68;15.98
73974;BME280;62336;-26.094;27.994;2023-04-03T11:55:42;84724.94;;;37.52;16.39
73974;BME280;62336;-26.094;27.994;2023-04-03T11:58:03;84713.99;;;37.20;16.70
73974;BME280;62336;-26.094;27.994;2023-04-03T12:02:44;84706.50;;;38.54;15.62
73974;BME280;62336;-26.094;27.994;2023-04-03T12:05:26;84705.73;;;38.40;16.31
73974;BME280;62336;-26.094;27.994;2023-04-03T12:07:36;84708.34;;;37.98;16.40
73974;BME280;62336;-26.094;27.994;2023-04-03T12:10:01;84704.79;;;38.60;15.81
73974;BME280;62336;-26.094;27.994;2023-04-03T12:12:31;84705.42;;;37.72;16.46
73974;BME280;62336;-26.094;27.994;2023-04-03T12:14:51;84696.29;;;37.66;16.48
73974;BME280;62336;-26.094;27.994;2023-04-03T12:17:22;84691.13;;;37.35;16.65
73974;BME280;62336;-26.094;27.994;2023-04-03T12:19:42;84687.25;;;38.01;16.22
73974;BME280;62336;-26.094;27.994;2023-04-03T12:22:11;84686.61;;;38.48;16.10
73974;BME280;62336;-26.094;27.994;2023-04-03T12:24:33;84691.95;;;38.60;15.83
73974;BME280;62336;-26.094;27.994;2023-04-03T12:27:04;84689.19;;;38.32;15.55
73974;BME280;62336;-26.094;27.994;2023-04-03T12:29:28;84684.62;;;38.05;15.30
73974;BME280;62336;-26.094;27.994;2023-04-03T12:31:58;84681.88;;;38.01;15.94
73974;BME280;62336;-26.094;27.994;2023-04-03T12:34:26;84680.85;;;37.81;16.33
73974;BME280;62336;-26.094;27.994;2023-04-03T12:36:46;84676.57;;;37.56;16.10
73974;BME280;62336;-26.094;27.994;2023-04-03T12:39:14;84671.72;;;38.43;15.83
73974;BME280;62336;-26.094;27.994;2023-04-03T12:41:37;84670.51;;;38.37;15.55
73974;BME280;62336;-26.094;27.994;2023-04-03T12:44:07;84668.27;;;38.66;15.46
73974;BME280;62336;-26.094;27.994;2023-04-03T12:46:23;84664.59;;;38.52;15.43
73974;BME280;62336;-26.094;27.994;2023-04-03T12:48:49;84662.75;;;38.79;15.50